Time;durP1;ratioP1;P1;durP2;ratioP2;P2;SDS_P1;SDS_P2;PMS_P1;PMS_P2;Temp;Humidity;BMP_temperature;BMP_pressure;BME280_temperature;BME280_humidity;BME280_pressure;Samples;Min_cycle;Max_cycle;Signal;HPM_P1;HPM_P2
2022/07/05 00:02:21;;;;;;;;;2.25;1.00;;;;;19.29;44.95;101637.09;5033538;28;45422;-47
2022/07/05 00:04:46;;;;;;;;;1.50;1.50;;;;;19.23;45.55;101640.03;5033963;28;45509;-48
2022/07/05 00:07:17;;;;;;;;;2.25;2.25;;;;;19.19;45.77;101638.47;5026546;28;70376;-49
2022/07/05 00:09:43;;;;;;;;;2.00;1.50;;;;;19.16;46.17;101639.50;5034153;28;45421;-47
2022/07/05 00:12:09;;;;;;;;;2.50;1.50;;;;;19.13;45.48;101635.16;5027882;28;45511;-47
2022/07/05 00:14:35;;;;;;;;;1.00;1.00;;;;;19.08;45.89;101645.16;5030008;28;45482;-46
2022/07/05 00:17:03;;;;;;;;;3.00;2.00;;;;;19.06;45.94;101641.72;5032438;28;46155;-47
2022/07/05 00:19:28;;;;;;;;;3.00;2.00;;;;;19.04;45.16;101637.44;5029147;28;45454;-49
2022/07/05 00:21:54;;;;;;;;;3.75;2.50;;;;;19.02;45.82;101645.44;5032745;28;45546;-48
2022/07/05 00:24:19;;;;;;;;;2.00;2.00;;;;;18.97;45.23;101642.16;5031723;28;45561;-49
2022/07/05 00:26:44;;;;;;;;;1.75;1.75;;;;;18.91;45.33;101643.31;5030892;28;61501;-51
2022/07/05 00:29:09;;;;;;;;;1.25;1.25;;;;;18.82;45.86;101643.72;5030651;28;50940;-46
2022/07/05 00:31:35;;;;;;;;;1.00;1.00;;;;;18.77;45.48;101651.88;5027281;28;59890;-47
2022/07/05 00:34:00;;;;;;;;;2.50;1.00;;;;;18.69;46.45;101645.22;5030714;28;51447;-47
2022/07/05 00:36:26;;;;;;;;;1.00;1.00;;;;;18.65;45.91;101643.66;5030222;28;46084;-47
2022/07/05 00:38:51;;;;;;;;;0.25;0.25;;;;;18.57;46.45;101646.63;5030769;28;45381;-47
2022/07/05 00:41:16;;;;;;;;;1.00;1.00;;;;;18.54;46.30;101642.34;5033549;28;66615;-46
2022/07/05 00:43:57;;;;;;;;;2.00;1.00;;;;;18.55;46.31;101649.34;5030295;28;45496;-47
2022/07/05 00:46:23;;;;;;;;;1.00;1.00;;;;;18.52;46.25;101644.22;5036358;28;46355;-46
2022/07/05 00:48:48;;;;;;;;;3.75;2.00;;;;;18.49;46.51;101652.31;5026664;28;61388;-51
2022/07/05 00:51:14;;;;;;;;;2.25;2.25;;;;;18.45;46.41;101648.06;5034015;28;45415;-47
2022/07/05 00:53:40;;;;;;;;;2.00;2.00;;;;;18.38;46.26;101647.50;5030747;28;45478;-48
2022/07/05 00:56:06;;;;;;;;;1.00;1.00;;;;;18.34;46.71;101648.56;5038664;28;45511;-47
2022/07/05 00:58:32;;;;;;;;;2.25;1.00;;;;;18.28;47.63;101653.28;5030135;28;45642;-47
2022/07/05 01:00:57;;;;;;;;;0.75;0.75;;;;;18.26;47.14;101649.84;5035340;28;46080;-45
2022/07/05 01:03:23;;;;;;;;;1.00;1.00;;;;;18.26;47.53;101648.03;5034508;28;64812;-48
2022/07/05 01:05:48;;;;;;;;;2.00;2.00;;;;;18.26;46.95;101644.53;5040252;28;46837;-49
2022/07/05 01:08:14;;;;;;;;;0.00;0.00;;;;;18.25;47.49;101648.09;5034093;28;63906;-46
2022/07/05 01:10:41;;;;;;;;;0.00;0.00;;;;;18.23;47.39;101645.53;5033235;28;69043;-50
2022/07/05 01:13:06;;;;;;;;;3.50;2.00;;;;;18.18;48.09;101645.75;5030441;28;45541;-47
2022/07/05 01:15:32;;;;;;;;;1.00;1.00;;;;;18.16;48.09;101646.72;5037779;28;70835;-47
2022/07/05 01:17:58;;;;;;;;;2.25;2.00;;;;;18.12;47.81;101638.06;5033857;28;66282;-53
2022/07/05 01:20:23;;;;;;;;;2.00;2.00;;;;;18.10;47.72;101636.41;5036178;28;68439;-54
2022/07/05 01:22:53;;;;;;;;;2.00;2.00;;;;;18.09;47.46;101638.19;5037049;28;45368;-48
2022/07/05 01:25:24;;;;;;;;;2.50;1.75;;;;;18.06;47.09;101635.69;5032405;28;48310;-50
2022/07/05 01:27:50;;;;;;;;;3.25;1.75;;;;;18.02;47.41;101636.72;5035651;28;46081;-53
2022/07/05 01:30:16;;;;;;;;;4.25;3.00;;;;;18.00;47.94;101639.44;5037442;28;45308;-51
2022/07/05 01:32:42;;;;;;;;;5.75;2.00;;;;;17.97;48.11;101633.41;5027364;28;45391;-51
2022/07/05 01:35:09;;;;;;;;;2.25;1.75;;;;;17.92;47.87;101632.75;5016360;28;47654;-51
2022/07/05 01:37:35;;;;;;;;;1.00;1.00;;;;;17.86;48.37;101631.22;5051435;28;45418;-49
2022/07/05 01:40:04;;;;;;;;;3.75;2.25;;;;;17.81;49.23;101631.41;5029162;28;45466;-49
2022/07/05 01:42:30;;;;;;;;;2.00;2.00;;;;;17.78;49.06;101630.69;5036580;28;45352;-50
2022/07/05 01:44:56;;;;;;;;;2.00;2.00;;;;;17.76;49.18;101632.53;5034633;28;75452;-52
2022/07/05 01:47:21;;;;;;;;;3.50;1.00;;;;;17.76;48.15;101630.75;5032383;28;45293;-53
2022/07/05 01:49:51;;;;;;;;;1.75;0.75;;;;;17.75;49.10;101630.81;5032779;28;45384;-49
2022/07/05 01:52:17;;;;;;;;;1.00;1.00;;;;;17.69;48.94;101631.06;5031707;28;45392;-53
2022/07/05 01:54:43;;;;;;;;;2.00;2.00;;;;;17.64;48.62;101637.41;5034600;28;46459;-48
2022/07/05 01:57:09;;;;;;;;;3.50;1.75;;;;;17.63;48.62;101635.69;5035542;28;46866;-48
2022/07/05 01:59:35;;;;;;;;;2.50;2.00;;;;;17.58;48.71;101635.06;5027974;28;45565;-49
2022/07/05 02:02:02;;;;;;;;;2.50;1.75;;;;;17.56;49.40;101636.03;5034211;28;45397;-46
2022/07/05 02:04:28;;;;;;;;;2.50;1.75;;;;;17.55;49.61;101631.66;5033828;28;45506;-49
2022/07/05 02:06:53;;;;;;;;;2.00;0.00;;;;;17.52;49.85;101632.66;5034418;28;45910;-49
2022/07/05 02:09:19;;;;;;;;;3.00;1.75;;;;;17.50;50.01;101631.84;5025757;28;45430;-50
2022/07/05 02:11:45;;;;;;;;;2.00;1.00;;;;;17.50;50.17;101629.19;5036757;28;45496;-48
2022/07/05 02:14:11;;;;;;;;;1.50;1.00;;;;;17.50;51.43;101628.34;5030067;28;67179;-47
2022/07/05 02:16:37;;;;;;;;;3.75;1.75;;;;;17.47;50.51;101624.03;5037443;28;45419;-46
2022/07/05 02:19:02;;;;;;;;;1.75;1.75;;;;;17.46;51.10;101625.81;5029234;28;45442;-48
2022/07/05 02:21:28;;;;;;;;;1.50;1.50;;;;;17.42;49.80;101628.66;5027669;28;45570;-48
2022/07/05 02:23:54;;;;;;;;;3.75;2.50;;;;;17.39;49.98;101624.34;5034671;28;57409;-49
2022/07/05 02:26:20;;;;;;;;;3.50;2.75;;;;;17.35;50.51;101625.41;5034762;28;63445;-48
2022/07/05 02:28:45;;;;;;;;;3.50;2.00;;;;;17.34;50.69;101633.41;5031480;28;45687;-49
2022/07/05 02:31:10;;;;;;;;;3.00;3.00;;;;;17.32;51.62;101628.19;5034944;28;45749;-45
2022/07/05 02:33:36;;;;;;;;;2.25;1.75;;;;;17.30;51.11;101629.16;5035636;28;46574;-47
2022/07/05 02:36:08;;;;;;;;;2.25;2.25;;;;;17.27;51.96;101627.50;5034909;28;46356;-45
2022/07/05 02:38:33;;;;;;;;;4.25;2.50;;;;;17.25;51.68;101635.50;5028319;28;45453;-46
2022/07/05 02:40:58;;;;;;;;;2.50;1.75;;;;;17.23;51.07;101632.06;5037727;28;45373;-44
2022/07/05 02:43:24;;;;;;;;;4.50;2.50;;;;;17.20;51.63;101633.97;5030220;28;65853;-45
2022/07/05 02:45:49;;;;;;;;;4.00;2.25;;;;;17.17;52.19;101629.66;5035513;28;70666;-46
2022/07/05 02:48:14;;;;;;;;;3.50;2.00;;;;;17.16;52.94;101630.59;5031017;28;45541;-45
2022/07/05 02:50:40;;;;;;;;;4.75;2.25;;;;;17.13;52.71;101620.13;5035585;28;69629;-48
2022/07/05 02:53:05;;;;;;;;;4.25;2.00;;;;;17.15;52.40;101628.00;5028476;28;70389;-47
2022/07/05 02:55:30;;;;;;;;;6.50;2.75;;;;;17.16;52.57;101627.09;5037682;28;61224;-45
2022/07/05 02:57:57;;;;;;;;;4.00;2.50;;;;;17.13;52.73;101622.78;5027881;28;60142;-46
2022/07/05 03:00:23;;;;;;;;;5.00;3.00;;;;;17.11;53.25;101621.13;5036391;28;45271;-45
2022/07/05 03:02:48;;;;;;;;;4.75;2.50;;;;;17.10;52.98;101622.03;5028691;28;45325;-44
2022/07/05 03:05:13;;;;;;;;;3.50;3.00;;;;;17.06;53.84;101614.22;5031298;28;45293;-45
2022/07/05 03:07:39;;;;;;;;;2.50;2.50;;;;;17.04;52.32;101625.78;5032791;28;60075;-49
2022/07/05 03:10:05;;;;;;;;;4.25;4.25;;;;;17.03;52.85;101624.94;5033966;28;63786;-47
2022/07/05 03:12:30;;;;;;;;;6.50;3.00;;;;;17.01;53.05;101628.56;5026973;28;46229;-48
2022/07/05 03:14:55;;;;;;;;;5.00;3.00;;;;;16.96;53.96;101630.50;5033596;28;45614;-47
2022/07/05 03:17:21;;;;;;;;;3.75;3.50;;;;;16.93;53.33;101634.16;5032132;28;68098;-49
2022/07/05 03:19:46;;;;;;;;;5.25;4.00;;;;;16.91;53.24;101630.72;5037819;28;45466;-46
2022/07/05 03:22:11;;;;;;;;;6.25;3.75;;;;;16.88;53.46;101628.19;5036758;28;64033;-47
2022/07/05 03:24:36;;;;;;;;;5.25;3.50;;;;;16.87;53.34;101629.09;5029225;28;69141;-47
2022/07/05 03:27:02;;;;;;;;;6.75;3.00;;;;;16.87;52.94;101624.69;5031090;28;58313;-49
2022/07/05 03:29:27;;;;;;;;;6.25;5.25;;;;;16.86;53.56;101628.22;5032841;28;45524;-48
2022/07/05 03:31:53;;;;;;;;;11.25;5.50;;;;;16.85;52.82;101626.50;5029833;28;46977;-46
2022/07/05 03:34:18;;;;;;;;;8.50;4.50;;;;;16.84;53.74;101638.00;5030970;28;62622;-45
2022/07/05 03:36:43;;;;;;;;;15.50;6.00;;;;;16.80;53.58;101639.03;5025421;28;52462;-46
2022/07/05 03:39:09;;;;;;;;;7.25;5.25;;;;;16.79;53.34;101633.81;5030087;28;66335;-48
2022/07/05 03:41:34;;;;;;;;;7.50;6.00;;;;;16.78;53.63;101632.91;5030148;28;46951;-46
2022/07/05 03:43:59;;;;;;;;;5.50;3.25;;;;;16.79;53.85;101644.38;5047385;28;46899;-48
2022/07/05 03:46:25;;;;;;;;;10.25;5.50;;;;;16.80;53.39;101644.31;5034789;28;46211;-47
2022/07/05 03:48:52;;;;;;;;;11.50;6.25;;;;;16.79;54.48;101647.00;5032048;28;58025;-47
2022/07/05 03:51:17;;;;;;;;;5.50;4.50;;;;;16.72;55.24;101649.03;5030883;28;45383;-47
2022/07/05 03:53:42;;;;;;;;;9.50;4.00;;;;;16.69;54.84;101652.63;5030744;28;45399;-45
2022/07/05 03:56:08;;;;;;;;;7.50;6.00;;;;;16.68;54.92;101661.50;5031778;28;64461;-46
2022/07/05 03:58:33;;;;;;;;;6.25;5.50;;;;;16.69;54.10;101657.06;5027267;28;45916;-47
2022/07/05 04:00:59;;;;;;;;;8.75;6.50;;;;;16.71;54.18;101663.16;5029495;28;74820;-49
2022/07/05 04:03:24;;;;;;;;;6.50;5.00;;;;;16.70;54.82;101664.09;5035516;28;67872;-47
2022/07/05 04:05:49;;;;;;;;;5.50;4.25;;;;;16.70;55.24;101662.28;5031498;28;61051;-48
2022/07/05 04:08:15;;;;;;;;;5.50;4.00;;;;;16.70;54.30;101659.66;5031354;28;58859;-47
2022/07/05 04:10:40;;;;;;;;;5.50;5.00;;;;;16.74;54.84;101660.41;5030995;28;46165;-47
2022/07/05 04:13:05;;;;;;;;;7.00;5.25;;;;;16.73;55.08;101661.31;5032529;28;47105;-52
2022/07/05 04:15:31;;;;;;;;;4.00;3.00;;;;;16.74;54.29;101664.84;5033472;28;56514;-51
2022/07/05 04:17:57;;;;;;;;;5.25;3.50;;;;;16.75;54.93;101663.88;5029777;28;45560;-49
2022/07/05 04:20:24;;;;;;;;;7.25;4.50;;;;;16.75;55.22;101672.72;5036898;28;47208;-49
2022/07/05 04:22:50;;;;;;;;;6.75;4.75;;;;;16.73;55.14;101660.44;5034386;28;45885;-50
2022/07/05 04:25:18;;;;;;;;;4.50;3.50;;;;;16.70;55.20;101675.50;5040469;28;45443;-49
2022/07/05 04:27:48;;;;;;;;;4.50;4.50;;;;;16.69;54.98;101676.41;5034845;28;45323;-48
2022/07/05 04:30:14;;;;;;;;;6.25;4.50;;;;;16.73;54.06;101673.66;5029440;28;46235;-48
2022/07/05 04:32:40;;;;;;;;;10.00;5.25;;;;;16.74;54.88;101678.03;5037325;28;45874;-49
2022/07/05 04:35:06;;;;;;;;;9.00;4.00;;;;;16.74;55.35;101685.97;5037022;28;45410;-46
2022/07/05 04:37:31;;;;;;;;;6.25;4.25;;;;;16.74;55.76;101675.41;5035103;28;45625;-48
2022/07/05 04:39:57;;;;;;;;;8.50;6.00;;;;;16.75;55.98;101680.63;5035653;28;72908;-48
2022/07/05 04:42:22;;;;;;;;;3.75;3.00;;;;;16.75;55.71;101682.41;5038422;28;58261;-50
2022/07/05 04:44:47;;;;;;;;;6.25;4.50;;;;;16.79;54.97;101681.38;5036754;28;69150;-52
2022/07/05 04:47:13;;;;;;;;;5.25;4.25;;;;;16.83;55.56;101675.94;5041185;28;51282;-52
2022/07/05 04:49:38;;;;;;;;;6.00;5.00;;;;;16.86;55.02;101682.91;5037379;28;68839;-51
2022/07/05 04:52:03;;;;;;;;;7.00;5.25;;;;;16.88;55.29;101675.78;5036662;28;64575;-51
2022/07/05 04:54:29;;;;;;;;;6.25;4.75;;;;;16.91;55.17;101682.72;5034595;28;45385;-50
2022/07/05 04:56:54;;;;;;;;;6.00;5.25;;;;;16.92;54.84;101685.28;5040167;28;61320;-46
2022/07/05 04:59:19;;;;;;;;;6.00;5.00;;;;;16.95;54.71;101682.53;5037291;28;45647;-49
2022/07/05 05:01:45;;;;;;;;;7.25;5.25;;;;;16.97;55.52;101685.13;5039444;28;59615;-48
2022/07/05 05:04:10;;;;;;;;;5.00;2.50;;;;;16.98;55.07;101689.47;5033482;28;64258;-48
2022/07/05 05:06:36;;;;;;;;;4.25;4.25;;;;;17.00;55.42;101695.59;5036220;28;61434;-50
2022/07/05 05:09:01;;;;;;;;;7.25;4.25;;;;;17.00;54.93;101691.16;5033415;28;74536;-52
2022/07/05 05:11:27;;;;;;;;;7.50;4.75;;;;;17.05;54.92;101685.69;5039346;28;45463;-51
2022/07/05 05:13:52;;;;;;;;;9.50;3.50;;;;;17.08;54.50;101690.84;5035172;28;45352;-49
2022/07/05 05:16:17;;;;;;;;;7.50;5.50;;;;;17.14;55.33;101692.38;5038490;28;45576;-51
2022/07/05 05:18:43;;;;;;;;;7.00;5.00;;;;;17.15;55.14;101694.13;5035316;28;73155;-51
2022/07/05 05:21:08;;;;;;;;;5.75;4.50;;;;;17.15;55.20;101692.34;5034750;28;65608;-51
2022/07/05 05:23:33;;;;;;;;;6.25;3.75;;;;;17.15;55.22;101696.78;5036470;28;60273;-51
2022/07/05 05:25:59;;;;;;;;;6.50;4.75;;;;;17.16;54.04;101695.88;5036922;28;45562;-51
2022/07/05 05:28:24;;;;;;;;;10.75;6.25;;;;;17.18;55.17;101702.81;5034539;28;72600;-49
2022/07/05 05:30:49;;;;;;;;;7.50;5.50;;;;;17.20;54.73;101697.47;5034101;28;68710;-46
2022/07/05 05:33:15;;;;;;;;;7.00;5.50;;;;;17.25;55.21;101700.78;5030402;28;54149;-49
2022/07/05 05:35:40;;;;;;;;;7.00;6.00;;;;;17.30;54.52;101703.22;5033398;28;61467;-47
2022/07/05 05:38:05;;;;;;;;;7.75;5.25;;;;;17.34;54.30;101703.06;5029024;28;45967;-46
2022/07/05 05:40:32;;;;;;;;;6.00;5.25;;;;;17.39;55.33;101710.81;5036636;28;45452;-46
2022/07/05 05:42:58;;;;;;;;;9.25;7.00;;;;;17.41;54.59;101706.34;5030544;28;45448;-48
2022/07/05 05:45:23;;;;;;;;;8.50;6.50;;;;;17.43;54.77;101712.41;5038296;28;45212;-47
2022/07/05 05:47:54;;;;;;;;;7.75;7.75;;;;;17.46;54.48;101722.88;5038163;28;46050;-49
2022/07/05 05:50:23;;;;;;;;;8.25;5.50;;;;;17.49;54.27;101720.09;5038430;28;45258;-48
2022/07/05 05:52:49;;;;;;;;;10.25;5.75;;;;;17.54;54.47;101725.22;5038570;28;45439;-48
2022/07/05 05:55:15;;;;;;;;;9.75;6.00;;;;;17.58;55.01;101726.81;5050092;28;46552;-49
2022/07/05 05:57:40;;;;;;;;;7.00;5.00;;;;;17.60;54.36;101738.19;5029658;28;45384;-48
2022/07/05 06:00:07;;;;;;;;;6.75;6.75;;;;;17.64;53.88;101731.88;5032926;28;72072;-49
2022/07/05 06:02:33;;;;;;;;;9.00;7.50;;;;;17.68;54.48;101733.44;5028912;28;45600;-48
2022/07/05 06:04:58;;;;;;;;;8.00;6.50;;;;;17.71;54.44;101732.47;5029413;28;45640;-47
2022/07/05 06:07:23;;;;;;;;;9.00;6.50;;;;;17.73;54.84;101725.34;5037931;28;46362;-52
2022/07/05 06:09:49;;;;;;;;;8.00;6.00;;;;;17.79;54.46;101733.00;5031819;28;57911;-49
2022/07/05 06:12:14;;;;;;;;;10.00;7.75;;;;;17.80;54.26;101730.31;5033901;28;50321;-48
2022/07/05 06:14:40;;;;;;;;;7.50;7.50;;;;;17.86;54.16;101723.91;5034002;28;64890;-50
2022/07/05 06:17:05;;;;;;;;;11.75;7.00;;;;;17.92;54.26;101738.69;5033917;28;72744;-47
2022/07/05 06:19:30;;;;;;;;;29.25;26.00;;;;;17.97;53.90;101728.75;5035374;28;73766;-47
2022/07/05 06:21:56;;;;;;;;;13.25;9.00;;;;;18.00;53.63;101729.50;5026908;28;66011;-48
2022/07/05 06:24:21;;;;;;;;;9.25;7.75;;;;;18.01;53.69;101733.88;5029331;28;62798;-49
2022/07/05 06:26:46;;;;;;;;;11.25;9.75;;;;;18.05;53.82;101733.75;5034702;28;45969;-47
2022/07/05 06:29:12;;;;;;;;;11.75;6.00;;;;;18.06;53.63;101739.00;5033649;28;69577;-48
2022/07/05 06:31:37;;;;;;;;;8.75;5.75;;;;;18.08;53.60;101737.13;5028337;28;45505;-52
2022/07/05 06:34:03;;;;;;;;;9.00;7.00;;;;;18.10;54.08;101735.28;5029705;28;45355;-46
2022/07/05 06:36:29;;;;;;;;;7.25;5.00;;;;;18.15;53.77;101733.28;5033571;28;45527;-51
2022/07/05 06:38:54;;;;;;;;;8.25;8.00;;;;;18.16;53.68;101737.66;5028228;28;45519;-51
2022/07/05 06:41:19;;;;;;;;;9.50;7.50;;;;;18.20;53.83;101747.22;5036016;28;61189;-50
2022/07/05 06:43:45;;;;;;;;;10.00;8.25;;;;;18.26;53.95;101731.97;5036261;28;45596;-49
2022/07/05 06:46:10;;;;;;;;;10.25;8.75;;;;;18.29;53.87;101739.78;5033807;28;57463;-48
2022/07/05 06:48:36;;;;;;;;;10.50;7.25;;;;;18.31;53.74;101735.25;5036973;28;45221;-47
2022/07/05 06:51:01;;;;;;;;;8.50;6.25;;;;;18.34;53.54;101736.03;5034266;28;45407;-48
2022/07/05 06:53:26;;;;;;;;;11.75;8.25;;;;;18.40;53.37;101743.69;5036685;28;45457;-46
2022/07/05 06:55:52;;;;;;;;;9.75;9.00;;;;;18.47;53.54;101746.94;5037036;28;68307;-47
2022/07/05 06:58:17;;;;;;;;;10.50;8.75;;;;;18.52;53.40;101742.28;5031407;28;45450;-49
2022/07/05 07:00:43;;;;;;;;;9.50;8.00;;;;;18.55;53.42;101746.59;5038584;28;45264;-47
2022/07/05 07:03:09;;;;;;;;;9.00;8.75;;;;;18.60;53.47;101747.25;5036932;28;45424;-47
2022/07/05 07:05:34;;;;;;;;;8.25;7.00;;;;;18.65;53.19;101745.25;5036813;28;45948;-48
2022/07/05 07:10:43;;;;;;;;;14.25;9.75;;;;;18.77;52.77;101739.41;5037193;28;45346;-47
2022/07/05 07:13:09;;;;;;;;;10.75;7.00;;;;;18.83;52.89;101740.09;5017253;28;45336;-51
2022/07/05 07:15:34;;;;;;;;;9.75;8.50;;;;;18.87;52.67;101747.81;5037382;28;64703;-46
2022/07/05 07:18:00;;;;;;;;;10.50;9.00;;;;;18.93;53.13;101744.91;5030832;28;45538;-47
2022/07/05 07:20:25;;;;;;;;;10.25;9.50;;;;;19.00;52.57;101748.13;5034015;28;45536;-48
2022/07/05 07:22:51;;;;;;;;;13.75;9.00;;;;;19.06;52.35;101744.34;5035555;28;45441;-47
2022/07/05 07:25:20;;;;;;;;;10.00;9.25;;;;;19.16;52.86;101756.25;5029563;28;46293;-52
2022/07/05 07:27:47;;;;;;;;;10.75;8.25;;;;;19.21;51.91;101753.34;5024932;28;45285;-48
2022/07/05 07:30:18;;;;;;;;;13.00;10.50;;;;;19.26;52.17;101754.00;5035346;28;45486;-49
2022/07/05 07:32:44;;;;;;;;;9.50;6.00;;;;;19.33;51.76;101753.63;5052250;28;45389;-48
2022/07/05 07:35:10;;;;;;;;;10.00;9.00;;;;;19.42;51.89;101751.47;5036872;28;46028;-47
2022/07/05 07:37:36;;;;;;;;;10.00;8.75;;;;;19.47;51.89;101752.13;5035760;28;45351;-46
2022/07/05 07:40:03;;;;;;;;;10.00;9.00;;;;;19.54;51.63;101757.03;5032762;28;46094;-46
2022/07/05 07:42:28;;;;;;;;;11.75;7.00;;;;;19.61;51.12;101754.13;5034300;28;45527;-47
2022/07/05 07:44:54;;;;;;;;;9.25;6.25;;;;;19.68;51.41;101763.50;5028329;28;46384;-47
2022/07/05 07:47:19;;;;;;;;;8.75;8.50;;;;;19.73;50.96;101759.72;5033618;28;65462;-49
2022/07/05 07:49:45;;;;;;;;;11.50;8.75;;;;;19.81;51.33;101751.34;5028720;28;64889;-47
2022/07/05 07:52:10;;;;;;;;;11.50;9.00;;;;;19.91;50.58;101762.41;5034053;28;45301;-51
2022/07/05 07:54:35;;;;;;;;;11.25;9.50;;;;;20.00;50.56;101763.72;5028884;28;46076;-51
2022/07/05 07:57:04;;;;;;;;;9.25;7.25;;;;;20.10;50.40;101763.19;5031656;28;70888;-50
2022/07/05 07:59:29;;;;;;;;;12.25;9.75;;;;;20.16;50.27;101756.69;5029719;28;45379;-50
2022/07/05 08:01:54;;;;;;;;;10.00;8.25;;;;;20.21;50.34;101762.63;5034187;28;64876;-54
2022/07/05 08:04:20;;;;;;;;;14.00;9.50;;;;;20.24;50.29;101758.97;5033965;28;74008;-49
2022/07/05 08:06:45;;;;;;;;;8.75;8.75;;;;;20.29;50.22;101768.44;5025601;28;45272;-50
2022/07/05 08:09:12;;;;;;;;;12.25;9.25;;;;;20.37;49.73;101768.03;5032024;28;45282;-51
2022/07/05 08:11:37;;;;;;;;;12.00;8.75;;;;;20.45;49.89;101765.84;5035967;28;45359;-48
2022/07/05 08:14:03;;;;;;;;;12.75;10.25;;;;;20.55;49.59;101763.53;5033454;28;45491;-51
2022/07/05 08:16:28;;;;;;;;;17.50;12.75;;;;;20.59;49.32;101761.56;5026278;28;71033;-52
2022/07/05 08:21:38;;;;;;;;;12.00;7.50;;;;;20.72;49.30;101759.19;5024510;28;45407;-46
2022/07/05 08:24:11;;;;;;;;;13.75;10.00;;;;;20.78;49.13;101757.03;5028228;28;46059;-49
2022/07/05 08:26:39;;;;;;;;;15.75;10.75;;;;;20.84;48.76;101756.72;5045647;28;45862;-47
2022/07/05 08:29:09;;;;;;;;;10.50;8.50;;;;;20.88;48.54;101756.56;5029517;28;45304;-49
2022/07/05 08:31:39;;;;;;;;;11.00;6.00;;;;;20.93;48.89;101747.38;5029912;28;45474;-46
2022/07/05 08:34:05;;;;;;;;;7.25;7.00;;;;;21.00;48.25;101747.88;5027516;28;46224;-48
2022/07/05 08:36:30;;;;;;;;;11.75;6.25;;;;;21.05;48.32;101746.72;5028313;28;45312;-46
2022/07/05 08:38:56;;;;;;;;;12.75;7.50;;;;;21.13;47.83;101743.59;5026338;28;45383;-48
2022/07/05 08:41:22;;;;;;;;;8.50;8.25;;;;;21.17;47.60;101744.31;5030771;28;45522;-51
2022/07/05 08:43:49;;;;;;;;;10.25;8.25;;;;;21.26;47.33;101748.25;5035494;28;46298;-47
2022/07/05 08:46:16;;;;;;;;;16.50;12.25;;;;;21.31;48.05;101749.72;5029061;28;45376;-47
2022/07/05 08:48:43;;;;;;;;;15.75;12.75;;;;;21.41;47.12;101752.72;5034542;28;45574;-49
2022/07/05 08:51:17;;;;;;;;;8.00;8.00;;;;;21.48;46.78;101747.91;5037775;28;45541;-48
2022/07/05 08:53:44;;;;;;;;;18.50;13.50;;;;;21.55;46.78;101746.66;5033376;28;47349;-49
2022/07/05 08:56:11;;;;;;;;;16.25;14.75;;;;;21.58;46.74;101749.13;5037033;28;45826;-50
2022/07/05 08:58:37;;;;;;;;;10.75;10.50;;;;;21.59;46.90;101754.38;5036434;28;45432;-44
2022/07/05 09:01:03;;;;;;;;;9.75;7.00;;;;;21.63;46.48;101747.06;5038218;28;45470;-50
2022/07/05 09:03:33;;;;;;;;;10.25;8.00;;;;;21.70;46.79;101748.41;5035597;28;45417;-55
2022/07/05 09:06:00;;;;;;;;;8.75;5.00;;;;;21.79;46.03;101749.69;5037293;28;45550;-50
2022/07/05 09:08:26;;;;;;;;;9.00;7.75;;;;;21.82;46.01;101749.53;5038862;28;45503;-58
2022/07/05 09:10:52;;;;;;;;;5.75;5.25;;;;;21.86;45.74;101743.06;5039733;28;45636;-46
2022/07/05 09:13:17;;;;;;;;;10.50;8.00;;;;;21.92;45.45;101744.50;5020415;28;63866;-47
2022/07/05 09:15:42;;;;;;;;;8.25;6.25;;;;;21.94;45.25;101748.81;5038260;28;45440;-46
2022/07/05 09:18:09;;;;;;;;;6.75;5.75;;;;;21.99;45.44;101744.06;5030683;28;61919;-47
2022/07/05 09:20:35;;;;;;;;;0.75;0.75;;;;;22.07;44.90;101740.94;5031704;28;45391;-45
2022/07/05 09:23:00;;;;;;;;;5.00;5.00;;;;;22.15;44.39;101738.69;5034715;28;47412;-45
2022/07/05 09:25:30;;;;;;;;;5.50;5.00;;;;;22.23;44.72;101738.19;5036579;28;45394;-45
2022/07/05 09:28:03;;;;;;;;;22.25;17.00;;;;;22.32;44.75;101740.34;5034768;28;45493;-46
2022/07/05 09:30:33;;;;;;;;;16.25;13.25;;;;;22.42;44.22;101743.31;5039041;28;45518;-48
2022/07/05 09:33:15;;;;;;;;;12.75;10.00;;;;;22.53;43.98;101746.19;5039318;28;46166;-44
2022/07/05 09:35:42;;;;;;;;;10.25;5.75;;;;;22.65;44.01;101749.06;5026381;28;45407;-47
2022/07/05 09:38:20;;;;;;;;;7.25;5.25;;;;;22.75;43.37;101750.19;5030174;28;45426;-48
2022/07/05 09:40:50;;;;;;;;;6.00;6.00;;;;;22.84;43.67;101748.75;5032700;28;45459;-44
2022/07/05 09:43:20;;;;;;;;;7.50;5.00;;;;;22.98;43.64;101745.22;5037812;28;45442;-44
2022/07/05 09:45:54;;;;;;;;;9.75;6.75;;;;;23.34;42.75;101744.72;5040764;28;45263;-50
2022/07/05 09:48:19;;;;;;;;;5.00;5.00;;;;;24.04;42.13;101744.53;5037274;28;45769;-47
2022/07/05 09:50:45;;;;;;;;;7.50;7.25;;;;;25.28;40.32;101736.75;5036409;28;45368;-45
2022/07/05 09:53:11;;;;;;;;;4.00;3.00;;;;;26.87;39.03;101748.84;5037974;28;45979;-48
2022/07/05 09:55:37;;;;;;;;;5.00;5.00;;;;;28.41;37.11;101747.69;5037664;28;45858;-49
2022/07/05 09:58:02;;;;;;;;;7.75;3.75;;;;;29.94;35.15;101755.63;5034658;28;45509;-46
2022/07/05 10:00:29;;;;;;;;;5.00;5.00;;;;;31.29;32.97;101751.75;5037883;28;71156;-46
2022/07/05 10:03:00;;;;;;;;;5.50;5.00;;;;;32.43;29.73;101751.91;5025977;28;47058;-51
2022/07/05 10:05:30;;;;;;;;;8.00;4.50;;;;;33.62;30.86;101747.44;5038104;28;45714;-49
2022/07/05 10:07:58;;;;;;;;;3.50;3.50;;;;;34.74;30.00;101753.09;5037195;28;45474;-50
2022/07/05 10:10:31;;;;;;;;;4.50;3.00;;;;;35.61;27.17;101733.03;5036763;28;45359;-45
2022/07/05 10:12:58;;;;;;;;;5.25;3.75;;;;;36.56;26.44;101735.16;5037874;28;46276;-51
2022/07/05 10:15:29;;;;;;;;;7.25;4.75;;;;;37.61;25.21;101733.88;5035360;28;45468;-50
2022/07/05 10:18:09;;;;;;;;;4.50;4.50;;;;;38.46;23.66;101741.25;5036484;28;45516;-45
2022/07/05 10:20:37;;;;;;;;;4.25;4.00;;;;;39.05;22.12;101740.69;5038741;28;45637;-47
2022/07/05 10:23:08;;;;;;;;;4.50;4.50;;;;;39.78;21.60;101742.69;5037631;28;45407;-47
2022/07/05 10:25:36;;;;;;;;;5.75;4.00;;;;;40.27;22.78;101756.16;5039667;28;45395;-49
2022/07/05 10:28:02;;;;;;;;;5.00;3.75;;;;;40.77;21.32;101748.22;5038926;28;45455;-47
2022/07/05 10:30:29;;;;;;;;;3.75;2.25;;;;;41.29;20.12;101753.66;5036294;28;46146;-47
2022/07/05 10:32:55;;;;;;;;;4.00;2.50;;;;;41.71;19.56;101749.34;5035998;28;46250;-48
2022/07/05 10:35:21;;;;;;;;;4.75;4.00;;;;;41.97;18.46;101752.06;5032893;28;45439;-47
2022/07/05 10:37:47;;;;;;;;;6.25;4.75;;;;;41.98;19.33;101751.84;5037878;28;45308;-46
2022/07/05 10:40:13;;;;;;;;;3.75;3.75;;;;;42.07;19.68;101744.16;5034000;28;45281;-50
2022/07/05 10:42:42;;;;;;;;;5.75;5.25;;;;;42.29;16.25;101739.91;5039417;28;46241;-48
2022/07/05 10:45:31;;;;;;;;;5.25;4.00;;;;;42.61;17.95;101744.44;5033036;28;45319;-52
2022/07/05 10:48:09;;;;;;;;;9.75;8.25;;;;;43.09;17.42;101737.25;5035772;28;45450;-48
2022/07/05 10:50:53;;;;;;;;;6.00;4.75;;;;;43.57;17.84;101730.78;5031257;28;45586;-47
2022/07/05 10:53:23;;;;;;;;;6.50;4.25;;;;;43.76;17.53;101732.38;5037986;28;45813;-46
2022/07/05 10:55:58;;;;;;;;;7.00;5.50;;;;;43.86;16.35;101734.53;5039794;28;45725;-48
2022/07/05 10:58:28;;;;;;;;;7.00;4.50;;;;;44.05;16.77;101729.72;5031620;28;45470;-48
2022/07/05 11:01:11;;;;;;;;;5.25;2.75;;;;;44.11;16.17;101728.75;5038164;28;45367;-46
2022/07/05 11:03:38;;;;;;;;;5.00;4.00;;;;;44.27;16.34;101718.91;5035796;28;45367;-48
2022/07/05 11:06:05;;;;;;;;;2.50;2.50;;;;;44.36;15.37;101722.97;5029108;28;45475;-48
2022/07/05 11:08:51;;;;;;;;;3.25;3.00;;;;;44.30;15.19;101720.34;5027920;28;45421;-48
2022/07/05 11:11:26;;;;;;;;;14.50;5.00;;;;;44.47;16.01;101721.25;5022822;28;45802;-51
2022/07/05 11:13:54;;;;;;;;;1.50;0.00;;;;;44.50;14.85;101720.78;5034316;28;46175;-50
2022/07/05 11:16:22;;;;;;;;;15.00;7.75;;;;;44.60;15.57;101722.91;5039842;28;45325;-50
2022/07/05 11:18:53;;;;;;;;;5.75;2.75;;;;;44.62;14.77;101723.50;5035069;28;45404;-48
2022/07/05 11:21:20;;;;;;;;;5.00;4.00;;;;;44.80;14.67;101725.25;5030078;28;45776;-47
2022/07/05 11:23:46;;;;;;;;;13.50;9.00;;;;;44.92;15.34;101725.19;5027255;28;46591;-47
2022/07/05 11:26:12;;;;;;;;;5.00;3.50;;;;;44.86;15.20;101720.66;5023784;28;45360;-48